• Join FlightAware (Why Join?)
  • Login
  • US Flag 
05:54PM EST


 

Airport Tracker/Info


-or-


 

Live Flight TrackerFlight Track Log ✈ AAY855 ✈ 14-Jul-2014 ✈ KSBN - KPIE

Flight Track Log - Related Links

Times and Time Zones

All times are in EDT time to prevent confusion due to time zone crossing. See the AAY855 flight status page for this flight to view local times or setup timezone preferences in your user account.

Time Position Orientation Groundspeed Altitude Reporting Facility
EDT Latitude Longitude Course Direction KTS MPH feet Rate Location/Type
09:22PM 41.6939 -86.3617 201° Southwest 191 220 2,200  Level Chicago Center
09:23PM 41.6253 -86.4092 207° Southwest 235 270 4,300 2,460 Climbing Chicago Center
09:24PM 41.5553 -86.4519 205° Southwest 269 310 7,300 2,640 Climbing Chicago Center
09:25PM 41.4944 -86.5133 217° Southwest 272 313 9,800 1,260 Climbing Chicago Center
09:26PM 41.4236 -86.5800 215° Southwest 317 365 10,000 1,020 Climbing Chicago Center
09:27PM 41.3436 -86.6547 215° Southwest 347 399 12,000 2,280 Climbing Chicago Center
09:28PM 41.0980 -86.7093 201° Southwest  Level FlightAware Approximate
09:29PM 41.2169 -86.7825 217° Southwest 360 414 15,800  Level Chicago Center
09:30PM 41.1150 -86.8178 195° South 394 453 17,900 1,980 Climbing Chicago Center
09:31PM 41.0103 -86.7719 162° South 421 484 19,900 1,860 Climbing Chicago Center
09:32PM 40.8911 -86.7208 162° South 424 488 21,700 1,500 Climbing Chicago Center
09:33PM 40.7731 -86.6714 162° South 443 510 23,000 1,740 Climbing Chicago Center
09:34PM 40.6481 -86.6175 162° South 445 512 25,300 1,860 Climbing Chicago Center
09:35PM 40.5336 -86.5694 162° South 437 503 26,900 1,440 Climbing Chicago Center
09:36PM 40.4192 -86.5219 162° South 434 499 28,300 1,260 Climbing Chicago Center
09:37PM 40.3067 -86.4756 163° South 429 494 29,500 1,260 Climbing Chicago Center
09:38PM 40.1694 -86.4150 161° South 430 495 30,900 720 Climbing Chicago Center
09:39PM 40.0581 -86.3656 161° South 427 491 31,000  Climbing Chicago Center
09:40PM 39.9436 -86.3203 163° South 427 491 31,000  Level Chicago Center
09:41PM 39.8158 -86.2717 164° South 431 496 31,000  Level Chicago Center
09:42PM 39.7000 -86.2272 164° South 431 496 31,000  Level Chicago Center
09:43PM 39.5889 -86.1736 160° South 436 502 31,100 660 Climbing Chicago Center
09:44PM 39.4744 -86.1242 162° South 438 504 32,400 900 Climbing Chicago Center
09:45PM 39.3644 -86.0800 163° South 423 487 33,000 240 Climbing Chicago Center
09:47PM 39.2103 -86.0211 164° South 417 480 33,000  Level Indianapolis Center
09:48PM 39.0981 -85.9775 163° South 417 480 33,000  Level Indianapolis Center
09:49PM 38.9842 -85.9292 162° South 426 490 33,000  Level Indianapolis Center
09:50PM 38.8706 -85.8817 162° South 428 493 33,000  Level Indianapolis Center
09:51PM 38.7561 -85.8353 162° South 428 493 33,000  Level Indianapolis Center
09:52PM 38.6408 -85.7894 163° South 429 494 33,000  Level Indianapolis Center
09:53PM 38.5258 -85.7444 163° South 429 494 33,000  Level Indianapolis Center
09:54PM 38.4131 -85.6997 163° South 429 494 33,000  Level Indianapolis Center
09:55PM 38.2986 -85.6550 163° South 428 493 33,000  Level Indianapolis Center
09:56PM 38.1606 -85.6008 163° South 428 493 33,000  Level Indianapolis Center
09:57PM 38.0456 -85.5603 164° South 428 493 33,000  Level Indianapolis Center
09:58PM 37.9339 -85.5317 169° South 413 475 33,000  Level Indianapolis Center
09:59PM 37.8150 -85.5017 169° South 413 475 33,000  Level Indianapolis Center
10:00PM 37.7011 -85.4706 168° South 414 476 33,000  Level Indianapolis Center
10:01PM 37.5822 -85.4597 176° South 418 481 33,000  Level Indianapolis Center
10:02PM 37.4686 -85.4547 178° South 413 475 33,000  Level Indianapolis Center
10:03PM 37.3517 -85.4522 179° South 417 480 33,000  Level Indianapolis Center
10:04PM 37.2356 -85.4503 179° South 417 480 33,000  Level Indianapolis Center
10:05PM 37.1197 -85.4478 179° South 417 480 33,000  Level Indianapolis Center
10:06PM 36.9878 -85.4192 170° South 426 490 33,000  Level Indianapolis Center
10:07PM 36.8731 -85.3775 164° South 428 493 33,000  Level Indianapolis Center
10:08PM 36.7586 -85.3367 164° South 428 493 33,000  Level Indianapolis Center
10:09PM 36.6400 -85.3028 167° South 432 497 33,000  Level Indianapolis Center
10:10PM 36.5208 -85.2697 167° South 435 501 33,000  Level Indianapolis Center
10:11PM 36.4008 -85.2628 177° South 436 502 33,000  Level Indianapolis Center
10:12PM 36.2814 -85.2664 181° South 432 497 33,000  Level Indianapolis Center
10:13PM 36.1589 -85.2733 183° South 434 499 33,000  Level Indianapolis Center
10:14PM 36.0394 -85.2814 183° South 435 501 33,000  Level Indianapolis Center
10:15PM 35.8872 -85.2947 184° South 441 507 33,000  Level Atlanta Center
10:16PM 35.7556 -85.3081 185° South 441 507 33,000  Level Atlanta Center
10:17PM 35.6344 -85.3164 183° South 441 507 33,000  Level Atlanta Center
10:18PM 35.5175 -85.3325 186° South 441 507 33,000  Level Atlanta Center
10:19PM 35.3961 -85.3558 189° South 441 507 33,000  Level Atlanta Center
10:20PM 35.2792 -85.3769 188° South 441 507 33,000  Level Atlanta Center
10:21PM 35.1603 -85.3775 180° South 441 507 33,000  Level Atlanta Center
10:22PM 35.0394 -85.3528 170° South 431 496 33,000  Level Atlanta Center
10:23PM 34.9231 -85.3206 167° South 436 502 33,000  Level Atlanta Center
10:24PM 34.8022 -85.2933 170° South 436 502 33,000  Level Atlanta Center
10:25PM 34.6814 -85.2664 170° South 441 507 33,000  Level Atlanta Center
10:26PM 34.5586 -85.2394 170° South 446 513 33,000  Level Atlanta Center
10:27PM 34.4378 -85.2125 170° South 452 520 33,000  Level Atlanta Center
10:28PM 34.3169 -85.1856 170° South 447 514 33,000  Level Atlanta Center
10:29PM 34.1919 -85.1564 169° South 447 514 33,000  Level Atlanta Center
10:30PM 34.0711 -85.1322 171° South 447 514 33,000  Level Atlanta Center
10:31PM 33.9483 -85.1081 171° South 447 514 33,000  Level Atlanta Center
10:32PM 33.8233 -85.0764 168° South 447 514 33,000  Level Atlanta Center
10:33PM 33.7025 -85.0500 170° South 447 514 33,000  Level Atlanta Center
10:34PM 33.5900 -85.0264 170° South 452 520 33,000  Level Atlanta Center
10:35PM 33.4650 -84.9975 169° South 452 520 33,000  Level Atlanta Center
10:36PM 33.3442 -84.9714 170° South 452 520 33,000  Level Atlanta Center
10:37PM 33.2192 -84.9428 169° South 452 520 33,000  Level Atlanta Center
10:38PM 33.0981 -84.9167 170° South 446 513 33,000  Level Atlanta Center
10:39PM 32.9753 -84.8881 169° South 446 513 33,000  Level Atlanta Center
10:40PM 32.8500 -84.8622 170° South 446 513 33,000  Level Atlanta Center
10:41PM 32.7147 -84.8339 170° South 446 513 33,000  Level Atlanta Center
10:43PM 32.4739 -84.7789 169° South 478 550 33,000  Level Jacksonville Center
10:44PM 32.3469 -84.7517 170° South 471 542 33,000  Level Jacksonville Center
10:45PM 32.2264 -84.7247 169° South 465 535 33,000  Level Jacksonville Center
10:46PM 32.1014 -84.6975 170° South 458 527 33,000  Level Jacksonville Center
10:47PM 31.9808 -84.6756 171° South 452 520 33,000  Level Jacksonville Center
10:48PM 31.8578 -84.6489 170° South 447 514 33,000  Level Jacksonville Center
10:49PM 31.7350 -84.6219 169° South 447 514 33,000  Level Jacksonville Center
10:50PM 31.6103 -84.5953 170° South 447 514 33,000  Level Jacksonville Center
10:51PM 31.4894 -84.5711 170° South 447 514 33,000  Level Jacksonville Center
10:52PM 31.3667 -84.5472 171° South 447 514 33,000  Level Jacksonville Center
10:53PM 31.2481 -84.5061 163° South 447 514 33,000  Level Jacksonville Center
10:54PM 31.1319 -84.4458 156° South 447 514 33,000  Level Jacksonville Center
10:55PM 31.0200 -84.3761 152° Southeast 452 520 33,000  Level Jacksonville Center
10:56PM 30.9081 -84.3114 154° Southeast 452 520 33,000  Level Jacksonville Center
10:57PM 30.7917 -84.2542 157° South 452 520 33,000  Level Jacksonville Center
10:58PM 30.6775 -84.1969 157° South 452 520 33,000  Level Jacksonville Center
10:59PM 30.5633 -84.1350 155° Southeast 452 520 33,000  Level Jacksonville Center
11:00PM 30.4531 -84.0708 153° Southeast 452 520 33,000  Level Jacksonville Center
11:01PM 30.3369 -84.0069 155° Southeast 457 526 33,000  Level Jacksonville Center
11:02PM 30.2225 -83.9478 156° South 457 526 33,000  Level Jacksonville Center
11:03PM 30.1081 -83.8892 156° South 457 526 33,000  Level Jacksonville Center
11:04PM 29.9939 -83.8278 155° Southeast 457 526 33,000  Level Jacksonville Center
11:05PM 29.8794 -83.7669 155° Southeast 457 526 33,000  Level Jacksonville Center
11:06PM 29.7628 -83.7061 156° South 457 526 33,000  Level Jacksonville Center
11:07PM 29.6483 -83.6478 156° South 452 520 33,000  Level Jacksonville Center
11:08PM 29.5319 -83.5847 155° Southeast 457 526 33,000 -1,080 Level Jacksonville Center
11:09PM 29.4172 -83.5244 155° Southeast 457 526 30,900 -2,400 Descending Jacksonville Center
11:10PM 29.3008 -83.4664 156° South 457 526 28,200 -2,460 Descending Jacksonville Center
11:11PM 29.1967 -83.4111 155° Southeast 457 526 26,000 -2,100 Descending Jacksonville Center
11:12PM 29.0861 -83.3536 156° South 450 518 24,100 -1,860 Descending Jacksonville Center
11:13PM 28.9778 -83.2936 154° Southeast 440 506 22,300 -1,800 Descending Jacksonville Center
11:14PM 28.8736 -83.2436 157° South 429 494 20,500 -1,800 Descending Jacksonville Center
11:15PM 28.7714 -83.1839 153° Southeast 419 482 18,800 -1,680 Descending Jacksonville Center
11:16PM 28.6714 -83.1339 156° South 409 471 17,200 -1,680 Descending Jacksonville Center
11:17PM 28.5833 -83.0833 153° Southeast 382 440 15,800 -1,680 Descending Tampa TRACON
11:18PM 28.4833 -83.0333 156° South 371 427 14,200 -1,740 Descending Tampa TRACON
11:19PM 28.4000 -83.0000 161° South 354 407 12,400 -1,620 Descending Tampa TRACON
11:20PM 28.3150 -82.9375 147° Southeast 340 391 10,900 -1,560 Descending Miami Center
11:21PM 28.2458 -82.8917 150° Southeast 297 342 9,200 -1,860 Descending Miami Center
11:22PM 28.2000 -82.8500 141° Southeast 278 320 7,700 -2,040 Descending Tampa TRACON
11:23PM 28.1333 -82.8000 147° Southeast 254 292 5,700 -2,100 Descending Tampa TRACON
11:24PM 28.0667 -82.7667 156° South 239 275 3,300 -1,800 Descending Tampa TRACON
11:25PM 28.0333 -82.7333 139° Southeast 210 242 2,100 -1,140 Descending Tampa TRACON
11:26PM 27.9833 -82.7000 150° Southeast 167 192 1,200 -840 Descending Tampa TRACON
11:27PM 27.9500 -82.7000 180° South 129 148 500 -720 Descending Tampa TRACON